sensor_id;sensor_type;location;lat;lon;timestamp;temperature;humidity
9095;DHT22;4583;49.796;9.902;2023-05-14T00:05:28;13.30;89.80
9095;DHT22;4583;49.796;9.902;2023-05-14T00:15:30;13.20;90.20
9095;DHT22;4583;49.796;9.902;2023-05-14T00:25:35;13.10;90.90
9095;DHT22;4583;49.796;9.902;2023-05-14T00:35:36;13.00;91.60
9095;DHT22;4583;49.796;9.902;2023-05-14T00:45:38;12.80;92.10
9095;DHT22;4583;49.796;9.902;2023-05-14T00:55:41;12.70;92.70
9095;DHT22;4583;49.796;9.902;2023-05-14T01:16:12;12.50;93.50
9095;DHT22;4583;49.796;9.902;2023-05-14T01:26:14;12.40;94.00
9095;DHT22;4583;49.796;9.902;2023-05-14T01:36:16;12.20;94.50
9095;DHT22;4583;49.796;9.902;2023-05-14T01:46:18;12.10;94.90
9095;DHT22;4583;49.796;9.902;2023-05-14T01:56:22;11.90;95.10
9095;DHT22;4583;49.796;9.902;2023-05-14T02:06:24;11.90;95.40
9095;DHT22;4583;49.796;9.902;2023-05-14T02:16:26;11.80;95.70
9095;DHT22;4583;49.796;9.902;2023-05-14T02:26:28;11.80;95.80
9095;DHT22;4583;49.796;9.902;2023-05-14T02:36:30;11.60;96.10
9095;DHT22;4583;49.796;9.902;2023-05-14T02:46:32;11.60;96.40
9095;DHT22;4583;49.796;9.902;2023-05-14T02:56:34;11.50;96.50
9095;DHT22;4583;49.796;9.902;2023-05-14T03:06:35;11.60;96.60
9095;DHT22;4583;49.796;9.902;2023-05-14T03:16:37;11.50;96.80
9095;DHT22;4583;49.796;9.902;2023-05-14T03:26:40;11.60;97.00
9095;DHT22;4583;49.796;9.902;2023-05-14T03:36:42;11.60;97.10
9095;DHT22;4583;49.796;9.902;2023-05-14T03:46:43;11.70;97.20
9095;DHT22;4583;49.796;9.902;2023-05-14T03:56:45;11.80;97.20
9095;DHT22;4583;49.796;9.902;2023-05-14T04:06:47;12.00;97.10
9095;DHT22;4583;49.796;9.902;2023-05-14T04:16:48;12.10;97.50
9095;DHT22;4583;49.796;9.902;2023-05-14T04:26:50;12.20;97.50
9095;DHT22;4583;49.796;9.902;2023-05-14T04:36:52;12.20;97.70
9095;DHT22;4583;49.796;9.902;2023-05-14T04:46:53;12.50;97.50
9095;DHT22;4583;49.796;9.902;2023-05-14T04:56:55;12.60;97.80
9095;DHT22;4583;49.796;9.902;2023-05-14T05:06:57;12.60;97.60
9095;DHT22;4583;49.796;9.902;2023-05-14T05:16:58;12.70;97.90
9095;DHT22;4583;49.796;9.902;2023-05-14T05:27:00;12.90;98.10
9095;DHT22;4583;49.796;9.902;2023-05-14T05:37:02;12.90;98.30
9095;DHT22;4583;49.796;9.902;2023-05-14T05:47:05;13.00;98.30
9095;DHT22;4583;49.796;9.902;2023-05-14T05:57:07;13.10;98.30
9095;DHT22;4583;49.796;9.902;2023-05-14T06:07:08;13.30;98.20
9095;DHT22;4583;49.796;9.902;2023-05-14T06:17:10;13.80;97.60
9095;DHT22;4583;49.796;9.902;2023-05-14T06:27:12;13.90;97.80
9095;DHT22;4583;49.796;9.902;2023-05-14T06:37:14;14.20;97.60
9095;DHT22;4583;49.796;9.902;2023-05-14T06:47:16;14.50;97.30
9095;DHT22;4583;49.796;9.902;2023-05-14T06:57:17;14.90;96.80
9095;DHT22;4583;49.796;9.902;2023-05-14T07:07:19;14.90;96.20
9095;DHT22;4583;49.796;9.902;2023-05-14T07:17:21;15.20;95.90
9095;DHT22;4583;49.796;9.902;2023-05-14T07:27:23;15.60;95.30
9095;DHT22;4583;49.796;9.902;2023-05-14T07:37:25;16.00;94.30
9095;DHT22;4583;49.796;9.902;2023-05-14T07:47:29;16.20;93.80
9095;DHT22;4583;49.796;9.902;2023-05-14T07:57:31;16.40;93.40
9095;DHT22;4583;49.796;9.902;2023-05-14T08:07:33;16.80;92.60
9095;DHT22;4583;49.796;9.902;2023-05-14T08:17:35;16.80;91.60
9095;DHT22;4583;49.796;9.902;2023-05-14T08:27:37;17.00;91.10
9095;DHT22;4583;49.796;9.902;2023-05-14T08:37:38;17.50;89.90
9095;DHT22;4583;49.796;9.902;2023-05-14T08:47:40;17.50;89.40
9095;DHT22;4583;49.796;9.902;2023-05-14T08:57:42;17.60;88.00
9095;DHT22;4583;49.796;9.902;2023-05-14T09:07:44;17.80;86.90
9095;DHT22;4583;49.796;9.902;2023-05-14T09:17:45;17.90;86.50
9095;DHT22;4583;49.796;9.902;2023-05-14T09:27:49;17.70;85.80
9095;DHT22;4583;49.796;9.902;2023-05-14T09:37:53;17.60;85.00
9095;DHT22;4583;49.796;9.902;2023-05-14T09:47:54;17.80;85.70
9095;DHT22;4583;49.796;9.902;2023-05-14T09:57:56;17.90;85.20
9095;DHT22;4583;49.796;9.902;2023-05-14T10:08:00;17.80;84.80
9095;DHT22;4583;49.796;9.902;2023-05-14T10:18:11;17.90;84.00
9095;DHT22;4583;49.796;9.902;2023-05-14T10:28:13;18.10;82.00
9095;DHT22;4583;49.796;9.902;2023-05-14T10:38:15;18.50;80.50
9095;DHT22;4583;49.796;9.902;2023-05-14T10:48:16;18.50;80.00
9095;DHT22;4583;49.796;9.902;2023-05-14T10:58:20;18.70;80.80
9095;DHT22;4583;49.796;9.902;2023-05-14T11:08:25;18.80;80.10
9095;DHT22;4583;49.796;9.902;2023-05-14T11:18:31;18.90;78.80
9095;DHT22;4583;49.796;9.902;2023-05-14T11:28:41;19.10;75.40
9095;DHT22;4583;49.796;9.902;2023-05-14T11:38:46;19.50;74.10
9095;DHT22;4583;49.796;9.902;2023-05-14T11:48:53;19.90;73.40
9095;DHT22;4583;49.796;9.902;2023-05-14T11:58:55;20.00;71.60
9095;DHT22;4583;49.796;9.902;2023-05-14T12:08:58;20.40;70.00
9095;DHT22;4583;49.796;9.902;2023-05-14T12:19:01;20.60;68.50
9095;DHT22;4583;49.796;9.902;2023-05-14T12:29:04;20.80;67.30
9095;DHT22;4583;49.796;9.902;2023-05-14T12:39:10;21.00;66.00
9095;DHT22;4583;49.796;9.902;2023-05-14T12:49:12;21.20;64.00
9095;DHT22;4583;49.796;9.902;2023-05-14T12:59:14;20.80;63.00
9095;DHT22;4583;49.796;9.902;2023-05-14T13:09:16;21.10;62.30
9095;DHT22;4583;49.796;9.902;2023-05-14T13:19:17;21.00;59.40
9095;DHT22;4583;49.796;9.902;2023-05-14T13:29:19;21.00;60.20
9095;DHT22;4583;49.796;9.902;2023-05-14T13:39:21;20.90;60.00
9095;DHT22;4583;49.796;9.902;2023-05-14T13:49:27;21.10;59.40
9095;DHT22;4583;49.796;9.902;2023-05-14T13:59:28;21.50;57.90
9095;DHT22;4583;49.796;9.902;2023-05-14T14:09:30;21.40;58.50
9095;DHT22;4583;49.796;9.902;2023-05-14T14:19:35;23.00;55.40
9095;DHT22;4583;49.796;9.902;2023-05-14T14:29:37;26.30;51.40
9095;DHT22;4583;49.796;9.902;2023-05-14T14:39:38;30.10;42.10
9095;DHT22;4583;49.796;9.902;2023-05-14T14:49:40;29.60;43.30
9095;DHT22;4583;49.796;9.902;2023-05-14T14:59:42;28.80;42.70
9095;DHT22;4583;49.796;9.902;2023-05-14T15:09:44;27.10;43.80
9095;DHT22;4583;49.796;9.902;2023-05-14T15:19:45;27.10;43.60
9095;DHT22;4583;49.796;9.902;2023-05-14T15:29:48;25.70;45.30
9095;DHT22;4583;49.796;9.902;2023-05-14T15:39:49;26.30;45.30
9095;DHT22;4583;49.796;9.902;2023-05-14T15:49:51;26.00;44.60
9095;DHT22;4583;49.796;9.902;2023-05-14T15:59:52;25.40;45.80
9095;DHT22;4583;49.796;9.902;2023-05-14T16:09:54;24.50;46.30
9095;DHT22;4583;49.796;9.902;2023-05-14T16:19:56;23.60;47.90
9095;DHT22;4583;49.796;9.902;2023-05-14T16:29:57;22.40;49.50
9095;DHT22;4583;49.796;9.902;2023-05-14T16:39:59;21.80;50.70
9095;DHT22;4583;49.796;9.902;2023-05-14T16:50:01;22.40;51.20
9095;DHT22;4583;49.796;9.902;2023-05-14T17:00:03;23.40;50.70
9095;DHT22;4583;49.796;9.902;2023-05-14T17:10:07;25.90;48.00
9095;DHT22;4583;49.796;9.902;2023-05-14T17:20:09;23.20;49.10
9095;DHT22;4583;49.796;9.902;2023-05-14T17:30:11;21.80;50.70
9095;DHT22;4583;49.796;9.902;2023-05-14T17:40:12;20.90;51.90
9095;DHT22;4583;49.796;9.902;2023-05-14T17:50:14;20.50;52.50
9095;DHT22;4583;49.796;9.902;2023-05-14T18:00:16;20.30;53.70
9095;DHT22;4583;49.796;9.902;2023-05-14T18:10:18;20.00;54.00
9095;DHT22;4583;49.796;9.902;2023-05-14T18:20:20;19.70;55.40
9095;DHT22;4583;49.796;9.902;2023-05-14T18:30:22;19.20;57.00
9095;DHT22;4583;49.796;9.902;2023-05-14T18:40:23;18.80;58.80
9095;DHT22;4583;49.796;9.902;2023-05-14T18:50:25;18.50;59.90
9095;DHT22;4583;49.796;9.902;2023-05-14T19:00:27;18.20;61.40
9095;DHT22;4583;49.796;9.902;2023-05-14T19:10:28;18.00;62.80
9095;DHT22;4583;49.796;9.902;2023-05-14T19:20:30;17.80;63.70
9095;DHT22;4583;49.796;9.902;2023-05-14T19:30:32;17.60;65.40
9095;DHT22;4583;49.796;9.902;2023-05-14T19:40:34;17.30;68.90
9095;DHT22;4583;49.796;9.902;2023-05-14T19:50:35;17.30;69.80
9095;DHT22;4583;49.796;9.902;2023-05-14T20:00:37;17.20;71.20
9095;DHT22;4583;49.796;9.902;2023-05-14T20:10:39;17.00;72.20
9095;DHT22;4583;49.796;9.902;2023-05-14T20:20:41;16.90;73.50
9095;DHT22;4583;49.796;9.902;2023-05-14T20:30:44;16.70;73.70
9095;DHT22;4583;49.796;9.902;2023-05-14T20:40:46;16.70;75.20
9095;DHT22;4583;49.796;9.902;2023-05-14T20:50:48;16.60;75.90
9095;DHT22;4583;49.796;9.902;2023-05-14T21:00:50;16.50;77.10
9095;DHT22;4583;49.796;9.902;2023-05-14T21:10:51;16.20;79.30
9095;DHT22;4583;49.796;9.902;2023-05-14T21:20:53;16.20;80.10
9095;DHT22;4583;49.796;9.902;2023-05-14T21:30:55;16.10;81.50
9095;DHT22;4583;49.796;9.902;2023-05-14T21:40:56;16.00;82.80
9095;DHT22;4583;49.796;9.902;2023-05-14T21:50:58;15.90;83.50
9095;DHT22;4583;49.796;9.902;2023-05-14T22:01:00;15.80;84.80
9095;DHT22;4583;49.796;9.902;2023-05-14T22:11:01;15.80;85.50
9095;DHT22;4583;49.796;9.902;2023-05-14T22:21:03;15.50;86.70
9095;DHT22;4583;49.796;9.902;2023-05-14T22:31:05;15.30;88.40
9095;DHT22;4583;49.796;9.902;2023-05-14T22:41:07;15.20;89.40
9095;DHT22;4583;49.796;9.902;2023-05-14T22:51:09;15.10;90.10
9095;DHT22;4583;49.796;9.902;2023-05-14T23:01:11;14.90;90.60
9095;DHT22;4583;49.796;9.902;2023-05-14T23:11:13;14.70;91.20
9095;DHT22;4583;49.796;9.902;2023-05-14T23:21:15;14.60;91.90
9095;DHT22;4583;49.796;9.902;2023-05-14T23:31:16;14.50;92.40
9095;DHT22;4583;49.796;9.902;2023-05-14T23:41:18;14.20;92.80
9095;DHT22;4583;49.796;9.902;2023-05-14T23:51:24;14.10;93.30
